Urb Esteves, Puerto Rico
Current Conditions -  °F | °C
As of 9:50 PM on Saturday 20 Dec 2014 (Local Time) from TJBQ Reporting Station
Clear Clear  
Wind Chill: 73°   Ceiling: Unl
Heat Index: 73°   Visibility: 10mi
Dew Point: 70°   Wind: 6mph
Humidity: 88%   Direction: 110°ESE
Pressure: 30.07"   Gusts: NA
Location:  18.4409°N, 67.1508°W
Report Text: TJBQ 210150Z 11005KT 10SM SKC 23/21 A3007 RMK TWR CLOSED
Loading
Personal Weather Stations






























Interactive Weather Map New forecast layout! Learn more

10-Day Weather Forecast

Advertisements
Track Severe Weather on mobile